createdAt,value
2022-08-26T00:01:51.490Z,100182.24
2022-08-26T00:04:27.746Z,100178.91
2022-08-26T00:06:58.446Z,100179.92
2022-08-26T00:09:32.747Z,100180.54
2022-08-26T00:12:08.518Z,100181.17
2022-08-26T00:14:39.734Z,100175.73
2022-08-26T00:17:12.455Z,100170.16
2022-08-26T00:19:48.355Z,100165.77
2022-08-26T00:22:22.370Z,100158.57
2022-08-26T00:24:55.258Z,100158.16
2022-08-26T00:27:34.014Z,100155.30
2022-08-26T00:30:10.169Z,100155.90
2022-08-26T00:32:46.263Z,100154.63
2022-08-26T00:35:17.240Z,100150.95
2022-08-26T00:37:53.761Z,100147.32
2022-08-26T00:40:26.025Z,100147.63
2022-08-26T00:42:59.774Z,100148.04
2022-08-26T00:45:38.128Z,100143.83
2022-08-26T00:48:09.291Z,100145.06
2022-08-26T00:50:41.455Z,100142.98
2022-08-26T00:53:24.031Z,100141.45
2022-08-26T00:56:03.461Z,100145.67
2022-08-26T00:58:34.154Z,100141.98
2022-08-26T01:01:05.389Z,100146.55
2022-08-26T01:03:36.468Z,100146.70
2022-08-26T01:06:20.034Z,100147.75
2022-08-26T01:08:53.737Z,100147.79
2022-08-26T01:11:26.816Z,100144.87
2022-08-26T01:13:59.572Z,100143.81
2022-08-26T01:16:30.497Z,100137.48
2022-08-26T01:19:10.545Z,100140.37
2022-08-26T01:21:42.581Z,100143.35
2022-08-26T01:24:15.908Z,100140.70
2022-08-26T01:26:48.391Z,100143.61
2022-08-26T01:29:20.276Z,100138.75
2022-08-26T01:31:51.600Z,100136.65
2022-08-26T01:34:23.677Z,100137.41
2022-08-26T01:36:58.898Z,100138.91
2022-08-26T01:39:30.007Z,100139.08
2022-08-26T01:42:03.056Z,100144.20
2022-08-26T01:44:37.590Z,100140.56
2022-08-26T01:47:09.677Z,100139.02
2022-08-26T01:49:40.913Z,100137.80
2022-08-26T01:52:12.011Z,100134.52
2022-08-26T01:54:46.162Z,100137.02
2022-08-26T01:57:17.613Z,100135.81
2022-08-26T01:59:50.312Z,100136.02
2022-08-26T02:02:24.430Z,100135.13
2022-08-26T02:05:02.015Z,100136.36
2022-08-26T02:07:33.760Z,100138.42
2022-08-26T02:10:05.519Z,100138.66
2022-08-26T02:12:37.713Z,100133.03
2022-08-26T02:15:10.050Z,100133.23
2022-08-26T02:17:44.377Z,100133.75
2022-08-26T02:20:26.490Z,100134.27
2022-08-26T02:22:57.811Z,100133.73
2022-08-26T02:25:32.180Z,100134.61
2022-08-26T02:28:06.691Z,100137.77
2022-08-26T02:30:38.212Z,100139.20
2022-08-26T02:33:09.471Z,100141.67
2022-08-26T02:38:35.501Z,100141.95
2022-08-26T02:41:08.065Z,100140.14
2022-08-26T02:43:41.144Z,100143.98
2022-08-26T02:46:27.682Z,100143.19
2022-08-26T02:49:01.095Z,100143.22
2022-08-26T02:51:31.903Z,100141.64
2022-08-26T02:54:06.184Z,100144.23
2022-08-26T02:56:38.468Z,100144.79
2022-08-26T02:59:11.629Z,100147.27
2022-08-26T03:01:42.857Z,100148.65
2022-08-26T03:04:16.467Z,100148.52
2022-08-26T03:06:52.808Z,100151.26
2022-08-26T03:09:25.524Z,100149.95
2022-08-26T03:11:58.318Z,100154.77
2022-08-26T03:14:32.258Z,100159.55
2022-08-26T03:17:06.150Z,100161.27
2022-08-26T03:19:41.902Z,100161.98
2022-08-26T03:22:15.131Z,100166.14
2022-08-26T03:24:46.627Z,100162.41
2022-08-26T03:27:17.510Z,100162.67
2022-08-26T03:30:19.099Z,100164.02
2022-08-26T03:32:59.437Z,100166.05
2022-08-26T03:35:30.254Z,100162.76
2022-08-26T03:38:07.932Z,100162.96
2022-08-26T03:40:42.060Z,100157.00
2022-08-26T03:43:13.911Z,100153.46
2022-08-26T03:45:46.703Z,100154.46
2022-08-26T03:48:17.637Z,100156.40
2022-08-26T03:50:50.641Z,100159.08
2022-08-26T03:53:26.065Z,100162.64
2022-08-26T03:55:57.701Z,100159.71
2022-08-26T03:58:32.449Z,100164.34
2022-08-26T04:01:05.547Z,100162.83
2022-08-26T04:03:55.529Z,100161.97
2022-08-26T04:06:26.464Z,100162.03
2022-08-26T04:09:00.869Z,100163.54
2022-08-26T04:11:38.626Z,100163.45
2022-08-26T04:14:13.099Z,100166.30
2022-08-26T04:16:44.890Z,100167.19
2022-08-26T04:19:16.366Z,100163.98
2022-08-26T04:21:51.578Z,100167.46
2022-08-26T04:24:28.460Z,100169.73
2022-08-26T04:27:17.369Z,100169.28
2022-08-26T04:29:54.781Z,100169.29
2022-08-26T04:32:32.018Z,100169.41
2022-08-26T04:35:03.446Z,100167.67
2022-08-26T04:37:42.997Z,100170.67
2022-08-26T04:40:30.778Z,100168.42
2022-08-26T04:43:04.408Z,100171.50
2022-08-26T04:45:38.158Z,100168.36
2022-08-26T04:48:11.641Z,100168.58
2022-08-26T04:50:49.454Z,100167.65
2022-08-26T04:53:25.969Z,100168.72
2022-08-26T04:56:01.911Z,100165.70
2022-08-26T04:58:34.972Z,100163.44
2022-08-26T05:01:06.438Z,100167.56
2022-08-26T05:03:40.946Z,100167.05
2022-08-26T05:06:13.531Z,100167.61
2022-08-26T05:08:53.608Z,100165.65
2022-08-26T05:11:34.873Z,100162.44
2022-08-26T05:14:07.540Z,100162.40
2022-08-26T05:16:40.407Z,100162.25
2022-08-26T05:19:11.637Z,100162.99
2022-08-26T05:21:45.420Z,100160.33
2022-08-26T05:24:18.203Z,100160.08
2022-08-26T05:26:49.806Z,100164.09
2022-08-26T05:29:21.701Z,100159.27
2022-08-26T05:31:56.119Z,100160.46
2022-08-26T05:34:30.360Z,100162.11
2022-08-26T05:37:06.228Z,100163.60
2022-08-26T05:39:57.095Z,100162.81
2022-08-26T05:42:39.259Z,100163.88
2022-08-26T05:45:18.657Z,100159.03
2022-08-26T05:47:51.602Z,100160.45
2022-08-26T05:50:23.315Z,100160.18
2022-08-26T05:52:54.485Z,100162.73
2022-08-26T05:55:37.092Z,100162.94
2022-08-26T05:58:14.941Z,100158.30
2022-08-26T06:00:59.568Z,100161.53
2022-08-26T06:03:31.513Z,100162.55
2022-08-26T06:06:08.832Z,100162.62
2022-08-26T06:08:44.570Z,100163.98
2022-08-26T06:11:18.862Z,100167.92
2022-08-26T06:13:53.696Z,100167.98
2022-08-26T06:16:25.303Z,100168.45
2022-08-26T06:18:59.031Z,100172.30
2022-08-26T06:21:31.492Z,100173.00
2022-08-26T06:24:26.987Z,100173.89
2022-08-26T06:26:58.596Z,100178.10
2022-08-26T06:29:30.561Z,100176.99
2022-08-26T06:32:10.918Z,100175.08
2022-08-26T06:34:45.031Z,100177.73
2022-08-26T06:37:15.933Z,100173.99
2022-08-26T06:39:59.982Z,100179.89
2022-08-26T06:42:32.415Z,100177.70
2022-08-26T06:45:03.081Z,100174.71
2022-08-26T06:47:33.974Z,100173.08
2022-08-26T06:50:05.145Z,100170.70
2022-08-26T06:52:36.069Z,100172.81
2022-08-26T06:57:55.627Z,100173.40
2022-08-26T07:00:26.439Z,100171.53
2022-08-26T07:02:57.323Z,100168.28
2022-08-26T07:05:30.601Z,100174.52
2022-08-26T07:08:05.745Z,100170.75
2022-08-26T07:10:37.216Z,100168.00
2022-08-26T07:13:08.672Z,100163.04
2022-08-26T07:15:42.060Z,100158.98
2022-08-26T07:18:13.154Z,100161.77
2022-08-26T07:20:43.867Z,100157.15
2022-08-26T07:23:17.962Z,100159.92
2022-08-26T07:25:54.811Z,100152.16
2022-08-26T07:28:29.105Z,100152.27
2022-08-26T07:31:07.362Z,100156.33
2022-08-26T07:33:46.682Z,100158.38
2022-08-26T07:36:29.929Z,100162.86
2022-08-26T07:39:04.809Z,100160.98
2022-08-26T07:41:37.832Z,100159.41
2022-08-26T07:44:10.363Z,100156.88
2022-08-26T07:46:44.095Z,100158.22
2022-08-26T07:49:19.665Z,100157.52
2022-08-26T07:51:50.668Z,100154.20
2022-08-26T07:54:27.338Z,100153.33
2022-08-26T07:57:00.781Z,100147.89
2022-08-26T07:59:39.292Z,100144.77
2022-08-26T08:02:13.125Z,100141.86
2022-08-26T08:04:48.074Z,100140.92
2022-08-26T08:07:45.005Z,100135.18
2022-08-26T08:10:25.225Z,100133.89
2022-08-26T08:13:03.000Z,100131.72
2022-08-26T08:15:33.757Z,100129.73
2022-08-26T08:18:07.033Z,100131.15
2022-08-26T08:20:59.406Z,100125.59
2022-08-26T08:23:38.512Z,100120.70
2022-08-26T08:26:12.175Z,100120.69
2022-08-26T08:28:49.556Z,100117.83
2022-08-26T08:31:52.492Z,100115.07
2022-08-26T08:34:19.441Z,100114.85
2022-08-26T08:36:54.211Z,100107.52
2022-08-26T08:39:25.327Z,100106.30
2022-08-26T08:42:10.982Z,100101.39
2022-08-26T08:44:51.751Z,100099.45
2022-08-26T08:47:27.406Z,100097.33
2022-08-26T08:50:06.206Z,100097.56
2022-08-26T08:52:44.144Z,100093.02
2022-08-26T08:55:17.401Z,100087.58
2022-08-26T08:57:55.310Z,100087.30
2022-08-26T09:00:39.766Z,100091.58
2022-08-26T09:03:12.219Z,100087.96
2022-08-26T09:05:48.667Z,100089.77
2022-08-26T09:08:29.602Z,100086.09
2022-08-26T09:11:01.235Z,100082.71
2022-08-26T09:13:34.553Z,100085.08
2022-08-26T09:16:12.960Z,100086.33
2022-08-26T09:18:59.309Z,100087.95
2022-08-26T09:21:31.720Z,100080.85
2022-08-26T09:24:03.766Z,100082.27
2022-08-26T09:26:47.520Z,100081.80
2022-08-26T09:29:24.901Z,100088.91
2022-08-26T09:31:57.144Z,100086.59
2022-08-26T09:34:28.877Z,100080.02
2022-08-26T09:37:06.844Z,100079.00
2022-08-26T09:39:38.674Z,100083.12
2022-08-26T09:42:14.304Z,100080.86
2022-08-26T09:45:00.839Z,100077.95
2022-08-26T09:47:39.503Z,100083.38
2022-08-26T09:50:20.733Z,100083.83
2022-08-26T09:52:52.528Z,100075.34
2022-08-26T09:55:24.749Z,100077.88
2022-08-26T09:57:58.237Z,100075.85
2022-08-26T10:00:34.868Z,100078.15
2022-08-26T10:03:17.239Z,100076.02
2022-08-26T10:06:00.937Z,100072.20
2022-08-26T10:08:33.946Z,100066.75
2022-08-26T10:11:05.492Z,100070.20
2022-08-26T10:13:41.164Z,100067.11
2022-08-26T10:16:17.708Z,100062.10
2022-08-26T10:18:59.848Z,100057.59
2022-08-26T10:21:33.180Z,100055.67
2022-08-26T10:24:04.177Z,100050.35
2022-08-26T10:26:36.766Z,100048.27
2022-08-26T10:31:47.853Z,100047.60
2022-08-26T10:34:23.657Z,100046.05
2022-08-26T10:39:41.068Z,100030.01
2022-08-26T10:42:20.900Z,100035.59
2022-08-26T10:44:54.813Z,100029.98
2022-08-26T10:47:33.493Z,100030.52
2022-08-26T10:50:05.085Z,100025.96
2022-08-26T10:52:42.386Z,100030.19
2022-08-26T10:55:20.279Z,100033.33
2022-08-26T10:57:52.793Z,100026.59
2022-08-26T11:00:43.969Z,100030.68
2022-08-26T11:03:29.176Z,100021.96
2022-08-26T11:06:21.874Z,100023.59
2022-08-26T11:08:55.652Z,100023.44
2022-08-26T11:11:46.990Z,100020.27
2022-08-26T11:14:39.506Z,100020.76
2022-08-26T11:17:41.195Z,100012.83
2022-08-26T11:20:15.941Z,100008.25
2022-08-26T11:22:49.050Z,100015.63
2022-08-26T11:25:20.410Z,100013.52
2022-08-26T11:28:12.863Z,100014.95
2022-08-26T11:30:57.701Z,100025.34
2022-08-26T11:34:02.606Z,100016.52
2022-08-26T11:36:39.019Z,100009.81
2022-08-26T11:39:17.393Z,100004.69
2022-08-26T11:41:52.663Z,100001.22
2022-08-26T11:44:31.740Z,100005.55
2022-08-26T11:47:07.154Z,99997.95
2022-08-26T11:49:44.690Z,100000.46
2022-08-26T11:52:20.887Z,99997.88
2022-08-26T11:55:28.190Z,99996.33
2022-08-26T11:58:01.066Z,100000.98
2022-08-26T12:00:34.494Z,99995.10
2022-08-26T12:03:07.294Z,99998.05
2022-08-26T12:05:44.676Z,99993.65
2022-08-26T12:08:23.651Z,99988.84
2022-08-26T12:11:13.817Z,99986.86
2022-08-26T12:13:44.516Z,99983.42
2022-08-26T12:16:26.969Z,99983.48
2022-08-26T12:18:57.846Z,99984.80
2022-08-26T12:21:31.479Z,99984.10
2022-08-26T12:24:07.329Z,99979.88
2022-08-26T12:26:41.085Z,99981.77
2022-08-26T12:29:20.017Z,99974.84
2022-08-26T12:31:51.661Z,99972.84
2022-08-26T12:34:22.977Z,99966.35
2022-08-26T12:36:55.910Z,99964.89
2022-08-26T12:39:29.738Z,99961.41
2022-08-26T12:42:02.720Z,99958.69
2022-08-26T12:44:41.640Z,99965.59
2022-08-26T12:47:42.186Z,99965.05
2022-08-26T12:50:26.000Z,99968.30
2022-08-26T12:53:02.794Z,99962.27
2022-08-26T12:55:50.900Z,99961.70
2022-08-26T12:58:24.550Z,99960.05
2022-08-26T13:01:11.922Z,99961.21
2022-08-26T13:03:47.094Z,99957.16
2022-08-26T13:06:26.072Z,99958.08
2022-08-26T13:09:02.310Z,99956.52
2022-08-26T13:11:36.792Z,99956.66
2022-08-26T13:14:21.013Z,99952.61
2022-08-26T13:16:57.945Z,99955.16
2022-08-26T13:19:33.289Z,99950.23
2022-08-26T13:22:05.412Z,99950.84
2022-08-26T13:24:37.146Z,99946.13
2022-08-26T13:27:12.320Z,99944.00
2022-08-26T13:29:45.326Z,99942.55
2022-08-26T13:32:16.425Z,99947.25
2022-08-26T13:34:53.812Z,99943.54
2022-08-26T13:37:34.720Z,99948.73
2022-08-26T13:40:09.997Z,99948.15
2022-08-26T13:42:49.804Z,99944.19
2022-08-26T13:45:27.924Z,99943.42
2022-08-26T13:48:02.939Z,99947.45
2022-08-26T13:50:38.402Z,99947.41
2022-08-26T13:53:11.948Z,99950.00
2022-08-26T13:55:52.127Z,99948.06
2022-08-26T13:58:25.421Z,99950.97
2022-08-26T14:01:05.103Z,99947.81
2022-08-26T14:03:45.370Z,99946.14
2022-08-26T14:06:22.923Z,99947.16
2022-08-26T14:08:57.948Z,99947.19
2022-08-26T14:11:50.750Z,99947.21
2022-08-26T14:14:30.169Z,99949.17
2022-08-26T14:17:01.056Z,99950.34
2022-08-26T14:19:55.781Z,99953.70
2022-08-26T14:22:27.123Z,99954.34
2022-08-26T14:25:00.337Z,99955.55
2022-08-26T14:27:32.165Z,99952.34
2022-08-26T14:30:03.175Z,99947.34
2022-08-26T14:32:37.963Z,99947.21
2022-08-26T14:35:12.992Z,99947.36
2022-08-26T14:37:44.988Z,99943.87
2022-08-26T14:40:21.442Z,99944.44
2022-08-26T14:43:09.017Z,99944.15
2022-08-26T14:45:43.807Z,99945.41
2022-08-26T14:48:19.056Z,99951.14
2022-08-26T14:50:49.833Z,99954.73
2022-08-26T14:53:38.150Z,99957.09
2022-08-26T14:56:09.296Z,99958.11
2022-08-26T14:58:44.220Z,99960.18
2022-08-26T15:01:15.750Z,99959.52
2022-08-26T15:03:48.361Z,99958.06
2022-08-26T15:06:26.931Z,99959.94
2022-08-26T15:08:57.681Z,99960.58
2022-08-26T15:11:35.512Z,99964.75
2022-08-26T15:14:19.208Z,99964.55
2022-08-26T15:16:55.132Z,99964.35
2022-08-26T15:19:27.863Z,99966.30
2022-08-26T15:21:58.896Z,99965.39
2022-08-26T15:24:30.279Z,99968.36
2022-08-26T15:27:03.679Z,99966.96
2022-08-26T15:29:38.020Z,99967.97
2022-08-26T15:32:09.063Z,99964.39
2022-08-26T15:34:42.111Z,99966.14
2022-08-26T15:37:14.457Z,99969.48
2022-08-26T15:39:46.750Z,99969.59
2022-08-26T15:42:22.535Z,99970.19
2022-08-26T15:44:53.768Z,99969.04
2022-08-26T15:47:27.782Z,99968.09
2022-08-26T15:50:02.970Z,99967.16
2022-08-26T15:52:34.422Z,99971.51
2022-08-26T15:55:09.052Z,99967.10
2022-08-26T15:57:43.437Z,99969.04
2022-08-26T16:00:20.134Z,99968.14
2022-08-26T16:02:51.163Z,99970.85
2022-08-26T16:05:25.044Z,99972.33
2022-08-26T16:08:02.179Z,99971.66
2022-08-26T16:10:33.201Z,99971.46
2022-08-26T16:13:04.808Z,99972.84
2022-08-26T16:15:41.833Z,99971.82
2022-08-26T16:18:15.890Z,99976.92
2022-08-26T16:20:57.874Z,99976.83
2022-08-26T16:23:48.100Z,99978.14
2022-08-26T16:26:20.125Z,99978.98
2022-08-26T16:28:52.978Z,99978.09
2022-08-26T16:31:31.377Z,99983.63
2022-08-26T16:34:05.716Z,99981.51
2022-08-26T16:36:36.964Z,99983.60
2022-08-26T16:39:08.579Z,99986.78
2022-08-26T16:41:41.132Z,99988.40
2022-08-26T16:44:12.283Z,99991.92
2022-08-26T16:46:45.531Z,99989.09
2022-08-26T16:49:23.920Z,99991.83
2022-08-26T16:51:59.708Z,99992.54
2022-08-26T16:54:33.042Z,99993.77
2022-08-26T16:57:06.450Z,99997.98
2022-08-26T16:59:41.559Z,99996.93
2022-08-26T17:02:12.859Z,99997.98
2022-08-26T17:04:46.188Z,99996.95
2022-08-26T17:07:21.105Z,99996.14
2022-08-26T17:09:52.126Z,100000.11
2022-08-26T17:12:26.657Z,100002.23
2022-08-26T17:14:59.616Z,100000.92
2022-08-26T17:17:30.468Z,100004.30
2022-08-26T17:20:07.193Z,100001.98
2022-08-26T17:22:41.041Z,100004.10
2022-08-26T17:25:13.630Z,100006.70
2022-08-26T17:27:44.743Z,100009.47
2022-08-26T17:30:16.721Z,100011.75
2022-08-26T17:32:50.184Z,100009.23
2022-08-26T17:35:22.701Z,100012.69
2022-08-26T17:38:00.229Z,100011.80
2022-08-26T17:40:34.042Z,100018.23
2022-08-26T17:43:12.238Z,100015.59
2022-08-26T17:45:43.657Z,100019.64
2022-08-26T17:48:17.439Z,100020.55
2022-08-26T17:50:51.104Z,100021.09
2022-08-26T17:53:24.289Z,100022.11
2022-08-26T17:56:04.852Z,100021.50
2022-08-26T17:58:39.371Z,100027.25
2022-08-26T18:01:10.438Z,100029.77
2022-08-26T18:03:49.190Z,100034.63
2022-08-26T18:06:24.272Z,100039.27
2022-08-26T18:08:56.872Z,100042.83
2022-08-26T18:11:32.557Z,100044.64
2022-08-26T18:14:06.670Z,100051.23
2022-08-26T18:16:39.900Z,100052.30
2022-08-26T18:19:13.252Z,100057.87
2022-08-26T18:21:43.983Z,100060.94
2022-08-26T18:24:14.833Z,100059.44
2022-08-26T18:26:51.216Z,100063.19
2022-08-26T18:29:25.656Z,100068.36
2022-08-26T18:31:59.168Z,100075.53
2022-08-26T18:34:31.710Z,100076.64
2022-08-26T18:39:43.825Z,100078.31
2022-08-26T18:42:22.746Z,100077.42
2022-08-26T18:45:04.138Z,100079.09
2022-08-26T18:47:35.043Z,100082.29
2022-08-26T18:50:07.536Z,100084.97
2022-08-26T18:52:38.295Z,100086.14
2022-08-26T18:55:11.407Z,100090.41
2022-08-26T18:57:42.295Z,100095.86
2022-08-26T19:00:13.781Z,100100.79
2022-08-26T19:02:50.515Z,100104.25
2022-08-26T19:05:25.383Z,100112.60
2022-08-26T19:07:57.024Z,100112.91
2022-08-26T19:10:31.298Z,100116.02
2022-08-26T19:13:02.783Z,100111.29
2022-08-26T19:15:34.194Z,100110.27
2022-08-26T19:18:10.633Z,100110.62
2022-08-26T19:20:46.638Z,100117.52
2022-08-26T19:23:34.026Z,100116.36
2022-08-26T19:26:06.251Z,100116.94
2022-08-26T19:28:40.898Z,100117.03
2022-08-26T19:31:14.520Z,100113.10
2022-08-26T19:33:47.793Z,100110.50
2022-08-26T19:36:22.501Z,100107.95
2022-08-26T19:38:53.434Z,100104.51
2022-08-26T19:41:36.574Z,100107.82
2022-08-26T19:44:09.724Z,100109.47
2022-08-26T19:46:41.014Z,100108.65
2022-08-26T19:49:11.650Z,100108.01
2022-08-26T19:51:44.647Z,100104.29
2022-08-26T19:54:18.079Z,100104.50
2022-08-26T19:56:51.465Z,100099.81
2022-08-26T19:59:22.653Z,100100.02
2022-08-26T20:02:01.086Z,100100.22
2022-08-26T20:04:36.180Z,100100.60
2022-08-26T20:07:07.201Z,100102.26
2022-08-26T20:09:37.979Z,100101.10
2022-08-26T20:12:10.507Z,100101.98
2022-08-26T20:14:44.045Z,100104.61
2022-08-26T20:17:16.647Z,100105.52
2022-08-26T20:20:05.167Z,100108.67
2022-08-26T20:22:40.057Z,100110.52
2022-08-26T20:25:14.528Z,100111.77
2022-08-26T20:27:46.713Z,100116.45
2022-08-26T20:30:17.832Z,100120.65
2022-08-26T20:32:48.928Z,100122.70
2022-08-26T20:35:19.922Z,100124.39
2022-08-26T20:37:52.289Z,100125.34
2022-08-26T20:40:23.420Z,100125.21
2022-08-26T20:42:56.889Z,100123.09
2022-08-26T20:45:32.670Z,100127.41
2022-08-26T20:48:06.156Z,100126.87
2022-08-26T20:50:39.150Z,100125.16
2022-08-26T20:53:09.852Z,100124.05
2022-08-26T20:55:44.551Z,100126.90
2022-08-26T20:58:17.999Z,100129.91
2022-08-26T21:00:50.994Z,100132.70
2022-08-26T21:03:23.677Z,100130.06
2022-08-26T21:05:57.589Z,100134.63
2022-08-26T21:08:29.486Z,100136.27
2022-08-26T21:11:00.394Z,100137.75
2022-08-26T21:14:01.174Z,100137.49
2022-08-26T21:16:30.539Z,100143.39
2022-08-26T21:19:03.491Z,100141.75
2022-08-26T21:21:35.922Z,100142.58
2022-08-26T21:24:12.710Z,100143.35
2022-08-26T21:26:44.432Z,100141.64
2022-08-26T21:29:18.409Z,100143.79
2022-08-26T21:31:51.696Z,100146.52
2022-08-26T21:34:23.531Z,100145.95
2022-08-26T21:36:54.783Z,100147.04
2022-08-26T21:39:25.716Z,100143.95
2022-08-26T21:41:59.107Z,100148.55
2022-08-26T21:44:33.961Z,100147.56
2022-08-26T21:47:12.373Z,100148.48
2022-08-26T21:49:50.669Z,100143.05
2022-08-26T21:52:23.659Z,100145.98
2022-08-26T21:55:00.307Z,100146.20
2022-08-26T21:57:33.979Z,100144.34
2022-08-26T22:00:08.968Z,100142.42
2022-08-26T22:02:39.919Z,100143.65
2022-08-26T22:05:13.856Z,100142.98
2022-08-26T22:07:45.653Z,100146.58
2022-08-26T22:10:16.577Z,100146.87
2022-08-26T22:12:59.364Z,100147.63
2022-08-26T22:15:35.491Z,100145.70
2022-08-26T22:18:11.779Z,100142.34
2022-08-26T22:20:42.537Z,100138.27
2022-08-26T22:23:13.458Z,100137.46
2022-08-26T22:25:45.968Z,100137.56
2022-08-26T22:28:16.952Z,100129.37
2022-08-26T22:30:50.993Z,100132.79
2022-08-26T22:33:26.980Z,100127.17
2022-08-26T22:36:01.991Z,100126.70
2022-08-26T22:38:37.355Z,100126.14
2022-08-26T22:41:11.097Z,100121.10
2022-08-26T22:43:42.315Z,100120.92
2022-08-26T22:46:15.726Z,100122.54
2022-08-26T22:48:46.628Z,100121.02
2022-08-26T22:51:29.457Z,100120.20
2022-08-26T22:54:03.015Z,100119.86
2022-08-26T22:56:33.693Z,100120.42
2022-08-26T22:59:09.342Z,100126.71
2022-08-26T23:01:40.958Z,100122.88
2022-08-26T23:04:12.402Z,100119.92
2022-08-26T23:06:47.612Z,100122.64
2022-08-26T23:09:22.307Z,100121.23
2022-08-26T23:11:56.014Z,100120.36
2022-08-26T23:14:27.197Z,100119.15
2022-08-26T23:16:59.326Z,100115.48
2022-08-26T23:19:31.510Z,100114.53
2022-08-26T23:22:02.451Z,100113.52
2022-08-26T23:24:33.465Z,100108.89
2022-08-26T23:27:04.933Z,100112.97
2022-08-26T23:29:36.862Z,100117.05
2022-08-26T23:32:10.878Z,100119.38
2022-08-26T23:34:59.997Z,100118.15
2022-08-26T23:37:33.748Z,100115.14
2022-08-26T23:40:08.080Z,100114.99
2022-08-26T23:42:38.872Z,100116.04
2022-08-26T23:45:13.541Z,100118.59
2022-08-26T23:47:45.786Z,100117.41
2022-08-26T23:50:47.011Z,100117.35
2022-08-26T23:53:24.117Z,100115.23
2022-08-26T23:55:56.837Z,100112.92
2022-08-26T23:58:27.540Z,100114.23
